createdAt,value
2022-09-25T00:00:59.088Z,10.23
2022-09-25T00:03:28.408Z,10.22
2022-09-25T00:06:05.544Z,10.20
2022-09-25T00:08:34.372Z,10.17
2022-09-25T00:11:07.482Z,10.12
2022-09-25T00:13:35.023Z,10.10
2022-09-25T00:16:03.140Z,10.09
2022-09-25T00:18:48.836Z,10.10
2022-09-25T00:21:17.227Z,10.10
2022-09-25T00:23:45.284Z,10.09
2022-09-25T00:26:13.866Z,10.08
2022-09-25T00:28:41.730Z,10.10
2022-09-25T00:31:09.886Z,10.10
2022-09-25T00:33:37.242Z,10.09
2022-09-25T00:36:06.581Z,10.07
2022-09-25T00:38:35.370Z,10.07
2022-09-25T00:41:03.474Z,10.06
2022-09-25T00:43:44.682Z,10.06
2022-09-25T00:46:33.811Z,10.03
2022-09-25T00:49:22.015Z,10.01
2022-09-25T00:51:59.700Z,10.00
2022-09-25T00:54:30.489Z,9.99
2022-09-25T00:57:01.198Z,9.98
2022-09-25T00:59:34.973Z,9.96
2022-09-25T01:02:02.091Z,9.94
2022-09-25T01:04:32.922Z,9.92
2022-09-25T01:06:59.999Z,9.87
2022-09-25T01:09:28.736Z,9.85
2022-09-25T01:11:55.533Z,9.86
2022-09-25T01:14:26.943Z,9.88
2022-09-25T01:17:21.378Z,9.85
2022-09-25T01:20:12.690Z,9.82
2022-09-25T01:22:51.737Z,9.77
2022-09-25T01:25:45.554Z,9.77
2022-09-25T01:28:49.620Z,9.74
2022-09-25T01:31:35.574Z,9.75
2022-09-25T01:34:16.865Z,9.74
2022-09-25T01:36:52.027Z,9.70
2022-09-25T01:39:28.158Z,9.68
2022-09-25T01:42:07.110Z,9.64
2022-09-25T01:44:41.623Z,9.62
2022-09-25T01:47:13.001Z,9.62
2022-09-25T01:49:44.886Z,9.62
2022-09-25T01:52:17.468Z,9.60
2022-09-25T01:54:51.984Z,9.58
2022-09-25T01:57:36.434Z,9.56
2022-09-25T02:00:14.241Z,9.54
2022-09-25T02:03:04.838Z,9.53
2022-09-25T02:05:39.725Z,9.49
2022-09-25T02:08:22.502Z,9.43
2022-09-25T02:10:57.178Z,9.38
2022-09-25T02:13:29.847Z,9.35
2022-09-25T02:15:59.709Z,9.24
2022-09-25T02:18:47.656Z,9.16
2022-09-25T02:21:33.567Z,9.17
2022-09-25T02:24:59.355Z,9.18
2022-09-25T02:27:29.619Z,9.17
2022-09-25T02:29:58.447Z,9.15
2022-09-25T02:32:29.640Z,9.18
2022-09-25T02:34:57.731Z,9.22
2022-09-25T02:37:24.429Z,9.28
2022-09-25T02:39:54.799Z,9.32
2022-09-25T02:42:58.775Z,9.35
2022-09-25T02:45:37.484Z,9.43
2022-09-25T02:48:18.292Z,9.50
2022-09-25T02:51:02.942Z,9.56
2022-09-25T02:53:42.935Z,9.56
2022-09-25T02:56:20.692Z,9.57
2022-09-25T02:58:54.172Z,9.58
2022-09-25T03:01:25.057Z,9.60
2022-09-25T03:03:55.337Z,9.61
2022-09-25T03:06:24.940Z,9.63
2022-09-25T03:08:56.847Z,9.64
2022-09-25T03:11:27.005Z,9.66
2022-09-25T03:13:56.470Z,9.64
2022-09-25T03:16:58.141Z,9.58
2022-09-25T03:19:29.441Z,9.55
2022-09-25T03:21:56.419Z,9.53
2022-09-25T03:24:23.181Z,9.44
2022-09-25T03:26:49.948Z,9.39
2022-09-25T03:29:17.484Z,9.36
2022-09-25T03:31:45.678Z,9.36
2022-09-25T03:34:14.698Z,9.34
2022-09-25T03:36:42.502Z,9.30
2022-09-25T03:39:11.067Z,9.22
2022-09-25T03:41:37.915Z,9.15
2022-09-25T03:44:05.003Z,9.08
2022-09-25T03:46:36.158Z,9.02
2022-09-25T03:49:04.258Z,9.02
2022-09-25T03:51:32.258Z,9.04
2022-09-25T03:53:59.010Z,9.06
2022-09-25T03:56:29.028Z,9.05
2022-09-25T03:58:56.978Z,9.01
2022-09-25T04:01:25.677Z,8.98
2022-09-25T04:03:52.641Z,8.97
2022-09-25T04:06:22.670Z,8.97
2022-09-25T04:08:50.136Z,8.97
2022-09-25T04:11:19.797Z,8.91
2022-09-25T04:13:47.092Z,8.87
2022-09-25T04:16:16.212Z,8.85
2022-09-25T04:18:45.706Z,8.85
2022-09-25T04:21:14.187Z,8.84
2022-09-25T04:23:41.297Z,8.77
2022-09-25T04:26:09.223Z,8.69
2022-09-25T04:28:36.790Z,8.64
2022-09-25T04:31:04.097Z,8.63
2022-09-25T04:33:47.688Z,8.59
2022-09-25T04:36:19.158Z,8.56
2022-09-25T04:38:48.803Z,8.54
2022-09-25T04:41:19.770Z,8.52
2022-09-25T04:43:46.658Z,8.52
2022-09-25T04:46:20.145Z,8.51
2022-09-25T04:48:48.446Z,8.53
2022-09-25T04:51:15.266Z,8.54
2022-09-25T04:53:43.215Z,8.54
2022-09-25T04:56:15.957Z,8.57
2022-09-25T04:58:48.546Z,8.59
2022-09-25T05:01:17.700Z,8.62
2022-09-25T05:03:47.400Z,8.61
2022-09-25T05:06:14.190Z,8.64
2022-09-25T05:08:40.873Z,8.68
2022-09-25T05:11:08.366Z,8.71
2022-09-25T05:13:37.552Z,8.77
2022-09-25T05:16:04.320Z,8.83
2022-09-25T05:18:33.794Z,8.87
2022-09-25T05:21:04.670Z,8.88
2022-09-25T05:23:31.391Z,8.90
2022-09-25T05:26:02.452Z,8.93
2022-09-25T05:28:33.165Z,8.97
2022-09-25T05:31:03.828Z,8.98
2022-09-25T05:33:32.293Z,9.00
2022-09-25T05:36:03.582Z,9.04
2022-09-25T05:38:33.251Z,9.04
2022-09-25T05:41:05.279Z,9.08
2022-09-25T05:43:33.283Z,9.06
2022-09-25T05:46:01.093Z,9.07
2022-09-25T05:48:27.803Z,9.09
2022-09-25T05:50:56.088Z,9.13
2022-09-25T05:53:23.784Z,9.13
2022-09-25T05:55:54.951Z,9.14
2022-09-25T05:58:22.059Z,9.14
2022-09-25T06:00:48.932Z,9.17
2022-09-25T06:03:16.478Z,9.22
2022-09-25T06:05:46.368Z,9.24
2022-09-25T06:08:14.360Z,9.25
2022-09-25T06:10:42.197Z,9.28
2022-09-25T06:13:08.973Z,9.30
2022-09-25T06:15:38.613Z,9.34
2022-09-25T06:18:06.725Z,9.38
2022-09-25T06:20:33.717Z,9.40
2022-09-25T06:23:01.036Z,9.42
2022-09-25T06:25:30.512Z,9.43
2022-09-25T06:28:00.378Z,9.43
2022-09-25T06:30:34.652Z,9.45
2022-09-25T06:33:12.836Z,9.45
2022-09-25T06:35:45.552Z,9.48
2022-09-25T06:38:13.145Z,9.50
2022-09-25T06:40:41.575Z,9.51
2022-09-25T06:43:13.884Z,9.52
2022-09-25T06:45:42.271Z,9.49
2022-09-25T06:48:12.732Z,9.51
2022-09-25T06:50:45.489Z,9.52
2022-09-25T06:53:13.181Z,9.52
2022-09-25T06:55:40.783Z,9.54
2022-09-25T06:58:11.302Z,9.56
2022-09-25T07:00:38.084Z,9.60
2022-09-25T07:03:23.750Z,9.61
2022-09-25T07:05:50.715Z,9.64
2022-09-25T07:08:21.217Z,9.66
2022-09-25T07:10:52.660Z,9.66
2022-09-25T07:13:25.795Z,9.61
2022-09-25T07:15:54.510Z,9.58
2022-09-25T07:18:22.851Z,9.58
2022-09-25T07:20:50.366Z,9.63
2022-09-25T07:23:22.245Z,9.66
2022-09-25T07:25:49.675Z,9.68
2022-09-25T07:28:19.140Z,9.65
2022-09-25T07:30:47.237Z,9.66
2022-09-25T07:33:14.047Z,9.69
2022-09-25T07:35:41.160Z,9.73
2022-09-25T07:38:08.136Z,9.74
2022-09-25T07:40:35.594Z,9.79
2022-09-25T07:43:03.059Z,9.82
2022-09-25T07:45:30.847Z,9.82
2022-09-25T07:48:02.394Z,9.86
2022-09-25T07:50:32.823Z,9.90
2022-09-25T07:52:59.947Z,9.92
2022-09-25T07:55:28.657Z,9.93
2022-09-25T07:57:58.568Z,9.97
2022-09-25T08:00:25.444Z,9.98
2022-09-25T08:02:57.576Z,10.03
2022-09-25T08:05:24.507Z,10.05
2022-09-25T08:07:52.289Z,10.05
2022-09-25T08:10:19.129Z,10.08
2022-09-25T08:12:46.179Z,10.13
2022-09-25T08:15:14.812Z,10.17
2022-09-25T08:17:42.926Z,10.19
2022-09-25T08:20:10.479Z,10.20
2022-09-25T08:22:37.346Z,10.23
2022-09-25T08:25:04.259Z,10.25
2022-09-25T08:27:31.744Z,10.28
2022-09-25T08:29:58.852Z,10.29
2022-09-25T08:32:25.584Z,10.32
2022-09-25T08:34:52.349Z,10.36
2022-09-25T08:37:20.614Z,10.39
2022-09-25T08:39:47.329Z,10.44
2022-09-25T08:42:20.972Z,10.50
2022-09-25T08:45:22.190Z,10.57
2022-09-25T08:48:14.069Z,10.67
2022-09-25T08:50:41.268Z,10.72
2022-09-25T08:56:13.969Z,10.85
2022-09-25T08:58:50.738Z,10.89
2022-09-25T09:01:21.750Z,10.95
2022-09-25T09:03:57.888Z,11.00
2022-09-25T09:06:27.072Z,11.02
2022-09-25T09:09:19.871Z,11.06
2022-09-25T09:11:59.804Z,11.07
2022-09-25T09:14:33.112Z,11.09
2022-09-25T09:17:03.580Z,11.12
2022-09-25T09:19:53.653Z,11.16
2022-09-25T09:22:48.838Z,11.20
2022-09-25T09:25:57.704Z,11.21
2022-09-25T09:29:12.248Z,11.31
2022-09-25T09:32:21.005Z,11.38
2022-09-25T09:35:08.068Z,11.43
2022-09-25T09:38:21.000Z,11.52
2022-09-25T09:41:13.957Z,11.62
2022-09-25T09:44:01.994Z,11.76
2022-09-25T09:46:48.920Z,11.88
2022-09-25T09:49:53.898Z,12.04
2022-09-25T09:52:44.120Z,12.23
2022-09-25T09:55:48.378Z,12.32
2022-09-25T09:58:35.306Z,12.36
2022-09-25T10:01:40.957Z,12.41
2022-09-25T10:04:38.184Z,12.48
2022-09-25T10:07:28.795Z,12.67
2022-09-25T10:10:17.781Z,12.83
2022-09-25T10:13:17.967Z,13.01
2022-09-25T10:16:11.513Z,13.25
2022-09-25T10:19:07.255Z,13.42
2022-09-25T10:22:03.444Z,13.45
2022-09-25T10:24:53.355Z,13.43
2022-09-25T10:27:46.314Z,13.39
2022-09-25T10:30:33.456Z,13.40
2022-09-25T10:33:26.195Z,13.52
2022-09-25T10:36:13.283Z,13.76
2022-09-25T10:39:17.981Z,14.03
2022-09-25T10:42:41.452Z,14.36
2022-09-25T10:45:36.326Z,14.48
2022-09-25T10:48:54.006Z,14.42
2022-09-25T10:52:05.378Z,14.29
2022-09-25T10:55:12.760Z,14.22
2022-09-25T10:58:11.733Z,14.09
2022-09-25T11:01:01.415Z,14.02
2022-09-25T11:03:57.020Z,14.04
2022-09-25T11:06:52.430Z,14.23
2022-09-25T11:09:44.977Z,14.41
2022-09-25T11:12:32.627Z,14.52
2022-09-25T11:15:23.300Z,14.56
2022-09-25T11:18:38.206Z,14.52
2022-09-25T11:21:38.004Z,14.51
2022-09-25T11:24:30.307Z,14.55
2022-09-25T11:27:23.867Z,14.63
2022-09-25T11:30:17.269Z,14.71
2022-09-25T11:33:27.348Z,14.84
2022-09-25T11:36:35.489Z,14.90
2022-09-25T11:39:45.990Z,14.89
2022-09-25T11:42:41.762Z,14.92
2022-09-25T11:45:30.505Z,15.00
2022-09-25T11:48:37.483Z,15.12
2022-09-25T11:51:53.056Z,15.10
2022-09-25T11:55:10.208Z,15.04
2022-09-25T11:58:15.998Z,15.06
2022-09-25T12:01:36.465Z,15.12
2022-09-25T12:04:24.196Z,15.21
2022-09-25T12:07:25.811Z,15.22
2022-09-25T12:10:25.398Z,15.11
2022-09-25T12:13:18.608Z,14.96
2022-09-25T12:16:23.850Z,14.84
2022-09-25T12:19:30.189Z,14.70
2022-09-25T12:22:28.320Z,14.56
2022-09-25T12:25:36.548Z,14.48
2022-09-25T12:28:52.662Z,14.50
2022-09-25T12:32:04.334Z,14.50
2022-09-25T12:35:34.055Z,14.62
2022-09-25T12:38:38.435Z,14.80
2022-09-25T12:41:33.482Z,15.03
2022-09-25T12:44:33.186Z,15.17
2022-09-25T12:47:33.825Z,15.20
2022-09-25T12:50:29.383Z,15.22
2022-09-25T12:53:48.805Z,15.45
2022-09-25T12:57:02.028Z,15.70
2022-09-25T13:00:03.697Z,15.61
2022-09-25T13:03:11.630Z,15.59
2022-09-25T13:06:14.612Z,15.57
2022-09-25T13:09:07.444Z,15.48
2022-09-25T13:12:04.850Z,15.27
2022-09-25T13:15:01.030Z,15.09
2022-09-25T13:17:48.489Z,15.08
2022-09-25T13:20:37.764Z,15.16
2022-09-25T13:23:29.082Z,15.22
2022-09-25T13:26:27.091Z,15.23
2022-09-25T13:29:36.502Z,15.27
2022-09-25T13:32:29.198Z,15.28
2022-09-25T13:35:19.813Z,15.33
2022-09-25T13:38:40.020Z,15.47
2022-09-25T13:41:29.870Z,15.53
2022-09-25T13:44:42.275Z,15.53
2022-09-25T13:47:38.591Z,15.53
2022-09-25T13:50:27.387Z,15.54
2022-09-25T13:53:20.754Z,15.53
2022-09-25T13:56:14.790Z,15.43
2022-09-25T13:59:21.025Z,15.37
2022-09-25T14:02:44.284Z,15.35
2022-09-25T14:05:37.843Z,15.39
2022-09-25T14:08:27.016Z,15.40
2022-09-25T14:11:20.151Z,15.46
2022-09-25T14:14:19.689Z,15.53
2022-09-25T14:17:10.633Z,15.51
2022-09-25T14:19:59.790Z,15.44
2022-09-25T14:22:54.119Z,15.39
2022-09-25T14:25:44.754Z,15.32
2022-09-25T14:28:34.602Z,15.28
2022-09-25T14:31:34.488Z,15.21
2022-09-25T14:34:43.791Z,15.11
2022-09-25T14:37:36.625Z,15.06
2022-09-25T14:40:34.084Z,15.16
2022-09-25T14:46:26.241Z,15.11
2022-09-25T14:49:30.632Z,15.03
2022-09-25T14:52:25.167Z,14.94
2022-09-25T14:55:21.245Z,14.85
2022-09-25T14:58:13.627Z,14.79
2022-09-25T15:01:09.064Z,14.76
2022-09-25T15:04:02.624Z,14.74
2022-09-25T15:06:59.741Z,14.84
2022-09-25T15:09:48.801Z,14.90
2022-09-25T15:12:35.843Z,14.96
2022-09-25T15:15:22.899Z,14.95
2022-09-25T15:18:14.108Z,14.90
2022-09-25T15:21:01.522Z,14.85
2022-09-25T15:23:48.789Z,14.85
2022-09-25T15:26:43.402Z,14.85
2022-09-25T15:29:35.675Z,14.86
2022-09-25T15:32:30.207Z,14.83
2022-09-25T15:35:22.143Z,14.77
2022-09-25T15:38:14.045Z,14.78
2022-09-25T15:41:02.103Z,14.76
2022-09-25T15:43:51.269Z,14.83
2022-09-25T15:46:48.733Z,14.93
2022-09-25T15:49:40.551Z,14.98
2022-09-25T15:52:32.746Z,14.97
2022-09-25T15:55:21.344Z,14.87
2022-09-25T15:58:14.746Z,14.83
2022-09-25T16:01:21.709Z,14.75
2022-09-25T16:04:38.527Z,14.72
2022-09-25T16:07:37.490Z,14.69
2022-09-25T16:10:24.384Z,14.67
2022-09-25T16:13:24.629Z,14.65
2022-09-25T16:16:45.071Z,14.58
2022-09-25T16:19:34.193Z,14.54
2022-09-25T16:22:23.965Z,14.51
2022-09-25T16:25:26.273Z,14.51
2022-09-25T16:28:23.625Z,14.51
2022-09-25T16:31:10.880Z,14.52
2022-09-25T16:33:58.258Z,14.51
2022-09-25T16:36:47.551Z,14.52
2022-09-25T16:39:38.866Z,14.49
2022-09-25T16:42:39.521Z,14.47
2022-09-25T16:45:29.893Z,14.43
2022-09-25T16:48:37.984Z,14.41
2022-09-25T16:51:30.139Z,14.41
2022-09-25T16:54:19.860Z,14.40
2022-09-25T16:57:06.852Z,14.36
2022-09-25T16:59:53.987Z,14.32
2022-09-25T17:02:44.298Z,14.29
2022-09-25T17:05:31.707Z,14.26
2022-09-25T17:08:25.140Z,14.25
2022-09-25T17:11:13.295Z,14.22
2022-09-25T17:14:00.867Z,14.20
2022-09-25T17:16:47.862Z,14.20
2022-09-25T17:19:35.130Z,14.18
2022-09-25T17:22:29.480Z,14.17
2022-09-25T17:25:31.951Z,14.10
2022-09-25T17:28:18.920Z,14.07
2022-09-25T17:31:06.012Z,14.04
2022-09-25T17:33:53.321Z,13.99
2022-09-25T17:36:40.321Z,13.98
2022-09-25T17:39:27.553Z,13.95
2022-09-25T17:42:14.525Z,13.88
2022-09-25T17:45:01.565Z,13.83
2022-09-25T17:47:48.531Z,13.79
2022-09-25T17:50:36.111Z,13.76
2022-09-25T17:53:25.819Z,13.70
2022-09-25T17:56:13.295Z,13.66
2022-09-25T17:59:02.182Z,13.65
2022-09-25T18:01:49.253Z,13.63
2022-09-25T18:04:36.292Z,13.61
2022-09-25T18:07:23.397Z,13.58
2022-09-25T18:10:11.736Z,13.52
2022-09-25T18:13:01.856Z,13.45
2022-09-25T18:15:50.467Z,13.41
2022-09-25T18:18:55.938Z,13.38
2022-09-25T18:22:01.657Z,13.32
2022-09-25T18:24:52.851Z,13.27
2022-09-25T18:27:41.891Z,13.24
2022-09-25T18:30:29.785Z,13.25
2022-09-25T18:33:16.940Z,13.24
2022-09-25T18:36:04.001Z,13.25
2022-09-25T18:38:51.138Z,13.26
2022-09-25T18:41:39.212Z,13.24
2022-09-25T18:44:27.037Z,13.24
2022-09-25T18:47:14.722Z,13.23
2022-09-25T18:50:02.536Z,13.23
2022-09-25T18:52:50.059Z,13.22
2022-09-25T18:55:38.716Z,13.21
2022-09-25T18:58:28.656Z,13.21
2022-09-25T19:01:15.943Z,13.23
2022-09-25T19:04:03.370Z,13.22
2022-09-25T19:06:50.428Z,13.20
2022-09-25T19:09:37.444Z,13.20
2022-09-25T19:12:25.408Z,13.18
2022-09-25T19:15:13.166Z,13.18
2022-09-25T19:18:00.174Z,13.19
2022-09-25T19:20:51.139Z,13.19
2022-09-25T19:23:38.855Z,13.20
2022-09-25T19:26:26.032Z,13.22
2022-09-25T19:29:13.233Z,13.23
2022-09-25T19:32:00.580Z,13.25
2022-09-25T19:34:47.639Z,13.27
2022-09-25T19:37:34.729Z,13.27
2022-09-25T19:40:36.536Z,13.26
2022-09-25T19:43:24.212Z,13.22
2022-09-25T19:46:16.055Z,13.20
2022-09-25T19:49:03.175Z,13.16
2022-09-25T19:51:50.307Z,13.14
2022-09-25T19:54:37.489Z,13.10
2022-09-25T19:57:24.513Z,13.06
2022-09-25T20:00:11.961Z,13.03
2022-09-25T20:02:59.122Z,13.02
2022-09-25T20:05:48.942Z,12.99
2022-09-25T20:08:37.088Z,12.97
2022-09-25T20:11:25.115Z,12.95
2022-09-25T20:14:12.955Z,12.94
2022-09-25T20:17:00.280Z,12.91
2022-09-25T20:19:47.301Z,12.87
2022-09-25T20:22:34.292Z,12.82
2022-09-25T20:25:21.925Z,12.80
2022-09-25T20:28:12.887Z,12.75
2022-09-25T20:31:05.246Z,12.71
2022-09-25T20:33:52.187Z,12.67
2022-09-25T20:36:39.971Z,12.64
2022-09-25T20:39:27.694Z,12.62
2022-09-25T20:42:14.730Z,12.63
2022-09-25T20:45:01.712Z,12.64
2022-09-25T20:47:48.771Z,12.64
2022-09-25T20:50:37.174Z,12.67
2022-09-25T20:53:25.183Z,12.66
2022-09-25T20:56:14.338Z,12.67
2022-09-25T20:59:04.270Z,12.67
2022-09-25T21:01:51.327Z,12.69
2022-09-25T21:04:38.456Z,12.71
2022-09-25T21:07:25.721Z,12.72
2022-09-25T21:10:12.790Z,12.73
2022-09-25T21:12:59.780Z,12.75
2022-09-25T21:15:47.520Z,12.77
2022-09-25T21:18:36.035Z,12.75
2022-09-25T21:21:25.009Z,12.73
2022-09-25T21:24:15.282Z,12.70
2022-09-25T21:27:02.270Z,12.65
2022-09-25T21:29:29.260Z,12.61
2022-09-25T21:31:57.056Z,12.60
2022-09-25T21:34:23.731Z,12.58
2022-09-25T21:36:51.457Z,12.57
2022-09-25T21:39:20.859Z,12.57
2022-09-25T21:41:48.415Z,12.59
2022-09-25T21:44:17.302Z,12.58
2022-09-25T21:46:45.553Z,12.59
2022-09-25T21:49:18.053Z,12.61
2022-09-25T21:51:46.213Z,12.62
2022-09-25T21:54:14.402Z,12.62
2022-09-25T21:56:41.550Z,12.64
2022-09-25T21:59:09.512Z,12.64
2022-09-25T22:01:38.752Z,12.67
2022-09-25T22:04:07.300Z,12.68
2022-09-25T22:06:39.875Z,12.69
2022-09-25T22:09:09.875Z,12.71
2022-09-25T22:11:37.712Z,12.74
2022-09-25T22:14:05.931Z,12.77
2022-09-25T22:16:35.744Z,12.78
2022-09-25T22:19:23.996Z,12.81
2022-09-25T22:21:53.590Z,12.82
2022-09-25T22:24:21.000Z,12.86
2022-09-25T22:26:49.005Z,12.89
2022-09-25T22:29:16.787Z,12.91
2022-09-25T22:31:44.401Z,12.93
2022-09-25T22:34:21.891Z,12.97
2022-09-25T22:36:50.231Z,12.98
2022-09-25T22:39:20.174Z,13.02
2022-09-25T22:41:53.947Z,13.05
2022-09-25T22:44:21.436Z,13.06
2022-09-25T22:46:48.720Z,13.09
2022-09-25T22:49:15.834Z,13.11
2022-09-25T22:51:42.799Z,13.13
2022-09-25T22:54:12.413Z,13.12
2022-09-25T22:56:42.155Z,13.12
2022-09-25T22:59:13.566Z,13.11
2022-09-25T23:01:52.599Z,13.11
2022-09-25T23:04:22.020Z,13.12
2022-09-25T23:06:49.656Z,13.13
2022-09-25T23:09:20.506Z,13.14
2022-09-25T23:11:47.949Z,13.15
2022-09-25T23:14:29.247Z,13.18
2022-09-25T23:16:57.078Z,13.20
2022-09-25T23:19:25.052Z,13.24
2022-09-25T23:21:53.298Z,13.25
2022-09-25T23:24:21.149Z,13.28
2022-09-25T23:26:48.442Z,13.30
2022-09-25T23:29:17.975Z,13.33
2022-09-25T23:31:46.449Z,13.36
2022-09-25T23:34:13.898Z,13.37
2022-09-25T23:36:43.566Z,13.40
2022-09-25T23:39:15.866Z,13.44
2022-09-25T23:41:42.953Z,13.48
2022-09-25T23:44:11.031Z,13.51
2022-09-25T23:46:40.420Z,13.55
2022-09-25T23:49:07.606Z,13.57
2022-09-25T23:51:34.481Z,13.60
2022-09-25T23:54:01.986Z,13.60
2022-09-25T23:56:31.731Z,13.62
2022-09-25T23:59:01.343Z,13.61
